createdAt,value
2023-11-23T00:02:20.655Z,100818.63
2023-11-23T00:12:23.223Z,100814.28
2023-11-23T00:22:27.203Z,100808.34
2023-11-23T00:32:29.869Z,100812.63
2023-11-23T00:42:32.425Z,100821.47
2023-11-23T00:52:34.860Z,100820.16
2023-11-23T01:02:38.386Z,100817.69
2023-11-23T01:12:41.218Z,100814.25
2023-11-23T01:22:43.713Z,100819.47
2023-11-23T01:32:46.425Z,100800.50
2023-11-23T01:42:49.308Z,100792.53
2023-11-23T01:52:53.569Z,100784.94
2023-11-23T02:02:57.890Z,100785.72
2023-11-23T02:13:01.124Z,100775.50
2023-11-23T02:23:04.868Z,100767.59
2023-11-23T02:33:09.840Z,100758.13
2023-11-23T02:43:12.673Z,100750.34
2023-11-23T02:53:29.306Z,100746.06
2023-11-23T03:03:32.143Z,100743.41
2023-11-23T03:13:34.661Z,100729.53
2023-11-23T03:23:37.430Z,100729.50
2023-11-23T03:33:39.954Z,100705.19
2023-11-23T03:43:42.504Z,100715.63
2023-11-23T03:53:45.134Z,100725.22
2023-11-23T04:03:47.706Z,100732.13
2023-11-23T04:13:50.184Z,100750.38
2023-11-23T04:23:52.768Z,100746.94
2023-11-23T04:33:55.425Z,100745.13
2023-11-23T04:43:58.177Z,100737.31
2023-11-23T04:54:00.670Z,100728.69
2023-11-23T05:04:05.672Z,100715.66
2023-11-23T05:14:09.261Z,100724.34
2023-11-23T05:24:11.830Z,100742.59
2023-11-23T05:34:14.327Z,100716.53
2023-11-23T05:44:17.331Z,100741.72
2023-11-23T05:54:20.439Z,100735.63
2023-11-23T06:04:23.513Z,100732.19
2023-11-23T06:14:26.767Z,100729.56
2023-11-23T06:24:29.640Z,100732.13
2023-11-23T06:34:32.356Z,100724.34
2023-11-23T06:44:35.514Z,100706.97
2023-11-23T06:54:38.048Z,100692.13
2023-11-23T07:04:41.933Z,100706.03
2023-11-23T07:14:45.720Z,100682.63
2023-11-23T07:24:48.300Z,100674.78
2023-11-23T07:34:50.777Z,100675.66
2023-11-23T07:44:53.412Z,100680.88
2023-11-23T07:54:55.967Z,100671.03
2023-11-23T08:04:58.842Z,100656.84
2023-11-23T08:15:01.829Z,100646.31
2023-11-23T08:25:04.741Z,100641.09
2023-11-23T08:35:09.479Z,100598.84
2023-11-23T08:45:12.114Z,100619.19
2023-11-23T08:55:14.973Z,100620.75
2023-11-23T09:05:18.207Z,100635.91
2023-11-23T09:15:21.168Z,100624.97
2023-11-23T09:25:26.109Z,100593.41
2023-11-23T09:35:28.786Z,100598.91
2023-11-23T09:45:32.300Z,100584.88
2023-11-23T09:55:34.776Z,100562.19
2023-11-23T10:05:39.917Z,100537.28
2023-11-23T10:15:45.491Z,100531.19
2023-11-23T10:25:48.304Z,100511.81
2023-11-23T10:35:54.214Z,100475.69
2023-11-23T10:45:58.410Z,100444.03
2023-11-23T10:56:06.202Z,100421.88
2023-11-23T11:06:11.305Z,100393.75
2023-11-23T11:16:16.122Z,100378.97
2023-11-23T11:26:22.025Z,100366.31
2023-11-23T11:36:29.633Z,100338.03
2023-11-23T11:46:35.468Z,100308.88
2023-11-23T11:56:38.634Z,100297.44
2023-11-23T12:06:41.494Z,100284.06
2023-11-23T12:16:46.622Z,100254.09
2023-11-23T12:26:50.535Z,100248.66
2023-11-23T12:36:53.186Z,100226.59
2023-11-23T12:46:56.190Z,100194.56
2023-11-23T12:56:58.752Z,100188.75
2023-11-23T13:07:01.316Z,100180.03
2023-11-23T13:17:07.415Z,100175.22
2023-11-23T13:27:13.142Z,100149.44
2023-11-23T13:37:15.678Z,100134.22
2023-11-23T13:47:18.490Z,100126.78
2023-11-23T13:57:21.130Z,100103.66
2023-11-23T14:07:24.091Z,100092.69
2023-11-23T14:17:27.908Z,100070.47
2023-11-23T14:27:30.710Z,100055.22
2023-11-23T14:37:33.518Z,100035.88
2023-11-23T14:47:36.220Z,100020.78
2023-11-23T14:57:38.895Z,100001.34
2023-11-23T15:07:41.448Z,100002.09
2023-11-23T15:17:44.668Z,99978.28
2023-11-23T15:27:49.281Z,99973.66
2023-11-23T15:37:52.194Z,99975.16
2023-11-23T15:47:54.793Z,99956.38
2023-11-23T15:57:58.113Z,99927.03
2023-11-23T16:08:00.795Z,99919.53
2023-11-23T16:18:03.687Z,99918.97
2023-11-23T16:28:06.326Z,99923.75
2023-11-23T16:38:10.263Z,99923.28
2023-11-23T16:48:13.162Z,99909.91
2023-11-23T16:58:16.726Z,99892.75
2023-11-23T17:08:20.217Z,99865.41
2023-11-23T17:18:22.965Z,99860.53
2023-11-23T17:28:26.397Z,99858.97
2023-11-23T17:38:30.129Z,99839.22
2023-11-23T17:48:35.013Z,99832.56
2023-11-23T17:58:38.326Z,99802.13
2023-11-23T18:08:41.250Z,99790.91
2023-11-23T18:18:45.563Z,99773.72
2023-11-23T18:28:49.835Z,99753.94
2023-11-23T18:38:53.262Z,99717.47
2023-11-23T18:48:56.821Z,99684.53
2023-11-23T18:59:00.366Z,99674.25
2023-11-23T19:09:03.581Z,99669.13
2023-11-23T19:19:08.768Z,99647.56
2023-11-23T19:29:13.748Z,99646.56
2023-11-23T19:39:20.194Z,99634.47
2023-11-23T19:49:23.804Z,99628.50
2023-11-23T19:59:26.903Z,99631.19
2023-11-23T20:09:31.169Z,99601.78
2023-11-23T20:19:36.873Z,99583.44
2023-11-23T20:29:40.851Z,99555.88
2023-11-23T20:39:45.205Z,99535.19
2023-11-23T20:49:49.696Z,99524.97
2023-11-23T20:59:52.907Z,99499.81
2023-11-23T21:09:55.629Z,99472.78
2023-11-23T21:19:58.120Z,99444.94
2023-11-23T21:30:01.045Z,99439.16
2023-11-23T21:40:03.831Z,99396.91
2023-11-23T21:50:09.245Z,99387.81
2023-11-23T22:00:13.242Z,99375.66
2023-11-23T22:10:16.623Z,99349.16
2023-11-23T22:20:21.537Z,99342.13
2023-11-23T22:30:24.376Z,99281.47
2023-11-23T22:40:27.628Z,99272.00
2023-11-23T22:50:30.737Z,99246.69
2023-11-23T23:00:37.345Z,99222.03
2023-11-23T23:10:40.944Z,99195.41
2023-11-23T23:20:48.065Z,99181.75
2023-11-23T23:30:50.563Z,99187.41
2023-11-23T23:40:53.126Z,99167.59
2023-11-23T23:50:55.764Z,99116.06
